Airfield :
LOGIN :

Register | Disclaimer

   EN    FR    IT 

 










Legend :    VFR   Marginal VFR   IFR   Intensive IFR   Very Intensive IFR
Visi :
Ceiling :
>= 8 km
>= 3000ft
5 to 8 km
1000 to 3000 ft
1500m to 5 km
500 to 1000 ft
800 to 1500m
200 to 500 ft
< 800m
< 200 ft
Symbols :   Thunderstorms  Fog  Heavy snow  Heavy precipitations  Wind > 20 kt
SIGMETs :     Misc.  Thunderstorms  Icing  Turbulence  Mountain Waves  Volcanic Ashes






- Airport Elevation : 327 ft
- IATA code : BHX


EGBB - Birmingham

CURRENT METAR :
  • 250250Z 33001KT CAVOK 15/14 Q1017

EXPIRED METARs :
  • 250220Z VRB01KT CAVOK 15/14 Q1017
  • 250150Z 21001KT 9999 BKN039 15/14 Q1017
  • 250120Z 25002KT CAVOK 14/14 Q1017
  • 250050Z VRB02KT CAVOK 15/14 Q1017
  • 250020Z 21002KT CAVOK 15/14 Q1017
  • 242350Z VRB02KT CAVOK 15/14 Q1017
  • 242320Z 15001KT CAVOK 16/14 Q1018
  • 242250Z 19001KT CAVOK 16/15 Q1018
  • 242150Z 26003KT CAVOK 18/15 Q1018

TAF TAF EGBB
Valid from the 25 at 00:00 until the 26 at 00:00 UTC


242254Z 2500/2524 23004KT 9999 FEW045
PROB40 2500/2508 8000
BECMG 2510/2513 05010KT
ATIS : +44 121 780 0910



MET'MAP, your aeronautical weather chart ! - Copyright ORBIFLY December 2007 - Disclaimer

ORBIFLY MET'MAP TEAM :

Programming & Development : Alexandra Zaïnal
Original concept : Baudouin d'Aumeries
Technical & hardware support : Manuel Goepfert
Assistance : Marc-Olivier Méhu




SOURCES & CREDITS :

   NOAA